sensor_id;sensor_type;location;lat;lon;timestamp;temperature;humidity
40808;DHT22;26523;52.504;13.498;2023-06-14T00:03:27;13.70;99.20
40808;DHT22;26523;52.504;13.498;2023-06-14T00:05:57;13.80;99.60
40808;DHT22;26523;52.504;13.498;2023-06-14T00:08:23;13.60;99.90
40808;DHT22;26523;52.504;13.498;2023-06-14T00:10:50;13.60;99.90
40808;DHT22;26523;52.504;13.498;2023-06-14T00:13:15;13.50;99.90
40808;DHT22;26523;52.504;13.498;2023-06-14T00:15:41;13.50;99.90
40808;DHT22;26523;52.504;13.498;2023-06-14T00:18:08;13.50;99.90
40808;DHT22;26523;52.504;13.498;2023-06-14T00:20:37;13.50;99.90
40808;DHT22;26523;52.504;13.498;2023-06-14T00:23:02;13.50;99.90
40808;DHT22;26523;52.504;13.498;2023-06-14T00:25:28;13.50;99.90
40808;DHT22;26523;52.504;13.498;2023-06-14T00:27:55;13.40;99.90
40808;DHT22;26523;52.504;13.498;2023-06-14T00:30:21;13.30;99.90
40808;DHT22;26523;52.504;13.498;2023-06-14T00:32:47;13.30;99.90
40808;DHT22;26523;52.504;13.498;2023-06-14T00:35:13;13.30;99.90
40808;DHT22;26523;52.504;13.498;2023-06-14T00:37:39;13.30;99.90
40808;DHT22;26523;52.504;13.498;2023-06-14T00:40:06;13.30;99.90
40808;DHT22;26523;52.504;13.498;2023-06-14T00:42:32;13.30;99.90
40808;DHT22;26523;52.504;13.498;2023-06-14T00:44:58;13.20;99.90
40808;DHT22;26523;52.504;13.498;2023-06-14T00:47:24;13.20;99.90
40808;DHT22;26523;52.504;13.498;2023-06-14T00:49:50;13.20;99.90
40808;DHT22;26523;52.504;13.498;2023-06-14T00:52:17;13.20;99.90
40808;DHT22;26523;52.504;13.498;2023-06-14T00:54:44;13.20;99.90
40808;DHT22;26523;52.504;13.498;2023-06-14T00:57:10;13.10;99.90
40808;DHT22;26523;52.504;13.498;2023-06-14T00:59:47;13.10;99.90
40808;DHT22;26523;52.504;13.498;2023-06-14T01:02:13;13.10;99.90
40808;DHT22;26523;52.504;13.498;2023-06-14T01:04:45;13.10;99.90
40808;DHT22;26523;52.504;13.498;2023-06-14T01:07:40;13.10;99.90
40808;DHT22;26523;52.504;13.498;2023-06-14T01:15:33;13.00;99.90
40808;DHT22;26523;52.504;13.498;2023-06-14T01:17:59;13.00;99.90
40808;DHT22;26523;52.504;13.498;2023-06-14T01:20:29;13.00;99.90
40808;DHT22;26523;52.504;13.498;2023-06-14T01:22:56;12.90;99.90
40808;DHT22;26523;52.504;13.498;2023-06-14T01:25:22;12.90;99.90
40808;DHT22;26523;52.504;13.498;2023-06-14T01:27:50;12.80;99.90
40808;DHT22;26523;52.504;13.498;2023-06-14T01:30:17;12.80;99.90
40808;DHT22;26523;52.504;13.498;2023-06-14T01:32:44;12.70;99.90
40808;DHT22;26523;52.504;13.498;2023-06-14T01:35:10;12.80;99.90
40808;DHT22;26523;52.504;13.498;2023-06-14T01:37:36;12.80;99.90
40808;DHT22;26523;52.504;13.498;2023-06-14T01:40:04;12.80;99.90
40808;DHT22;26523;52.504;13.498;2023-06-14T01:42:35;12.80;99.90
40808;DHT22;26523;52.504;13.498;2023-06-14T01:45:01;12.80;99.90
40808;DHT22;26523;52.504;13.498;2023-06-14T01:47:27;12.80;99.90
40808;DHT22;26523;52.504;13.498;2023-06-14T01:49:53;12.80;99.90
40808;DHT22;26523;52.504;13.498;2023-06-14T01:52:19;12.80;99.90
40808;DHT22;26523;52.504;13.498;2023-06-14T01:54:45;12.80;99.90
40808;DHT22;26523;52.504;13.498;2023-06-14T01:57:11;12.80;99.90
40808;DHT22;26523;52.504;13.498;2023-06-14T01:59:37;12.80;99.90
40808;DHT22;26523;52.504;13.498;2023-06-14T02:02:03;12.70;99.90
40808;DHT22;26523;52.504;13.498;2023-06-14T02:04:29;12.70;99.90
40808;DHT22;26523;52.504;13.498;2023-06-14T02:06:55;12.70;99.90
40808;DHT22;26523;52.504;13.498;2023-06-14T02:09:20;12.60;99.90
40808;DHT22;26523;52.504;13.498;2023-06-14T02:11:46;12.60;99.90
40808;DHT22;26523;52.504;13.498;2023-06-14T02:14:12;12.60;99.90
40808;DHT22;26523;52.504;13.498;2023-06-14T02:16:38;12.60;99.90
40808;DHT22;26523;52.504;13.498;2023-06-14T02:19:05;12.60;99.90
40808;DHT22;26523;52.504;13.498;2023-06-14T02:21:30;12.60;99.90
40808;DHT22;26523;52.504;13.498;2023-06-14T02:23:56;12.60;99.90
40808;DHT22;26523;52.504;13.498;2023-06-14T02:26:22;12.60;99.90
40808;DHT22;26523;52.504;13.498;2023-06-14T02:28:48;12.50;99.90
40808;DHT22;26523;52.504;13.498;2023-06-14T02:31:14;12.50;99.90
40808;DHT22;26523;52.504;13.498;2023-06-14T02:33:40;12.50;99.90
40808;DHT22;26523;52.504;13.498;2023-06-14T02:36:06;12.50;99.90
40808;DHT22;26523;52.504;13.498;2023-06-14T02:38:31;12.40;99.90
40808;DHT22;26523;52.504;13.498;2023-06-14T02:40:57;12.40;99.90
40808;DHT22;26523;52.504;13.498;2023-06-14T02:43:24;12.40;99.90
40808;DHT22;26523;52.504;13.498;2023-06-14T02:45:50;12.40;99.90
40808;DHT22;26523;52.504;13.498;2023-06-14T02:48:16;12.40;99.90
40808;DHT22;26523;52.504;13.498;2023-06-14T02:50:41;12.40;99.90
40808;DHT22;26523;52.504;13.498;2023-06-14T02:53:07;12.40;99.90
40808;DHT22;26523;52.504;13.498;2023-06-14T02:55:33;12.40;99.90
40808;DHT22;26523;52.504;13.498;2023-06-14T02:57:59;12.40;99.90
40808;DHT22;26523;52.504;13.498;2023-06-14T03:00:24;12.40;99.90
40808;DHT22;26523;52.504;13.498;2023-06-14T03:02:50;12.40;99.90
40808;DHT22;26523;52.504;13.498;2023-06-14T03:05:16;12.40;99.90
40808;DHT22;26523;52.504;13.498;2023-06-14T03:07:46;12.50;99.90
40808;DHT22;26523;52.504;13.498;2023-06-14T03:10:13;12.50;99.90
40808;DHT22;26523;52.504;13.498;2023-06-14T03:12:39;12.50;99.90
40808;DHT22;26523;52.504;13.498;2023-06-14T03:15:04;12.50;99.90
40808;DHT22;26523;52.504;13.498;2023-06-14T03:17:30;12.50;99.90
40808;DHT22;26523;52.504;13.498;2023-06-14T03:19:59;12.50;99.90
40808;DHT22;26523;52.504;13.498;2023-06-14T03:22:25;12.50;99.90
40808;DHT22;26523;52.504;13.498;2023-06-14T03:24:51;12.50;99.90
40808;DHT22;26523;52.504;13.498;2023-06-14T03:27:17;12.50;99.90
40808;DHT22;26523;52.504;13.498;2023-06-14T03:29:44;12.60;99.90
40808;DHT22;26523;52.504;13.498;2023-06-14T03:32:09;12.60;99.90
40808;DHT22;26523;52.504;13.498;2023-06-14T03:34:35;12.60;99.90
40808;DHT22;26523;52.504;13.498;2023-06-14T03:37:01;12.70;99.90
40808;DHT22;26523;52.504;13.498;2023-06-14T03:39:26;12.70;99.90
40808;DHT22;26523;52.504;13.498;2023-06-14T03:41:52;12.80;99.90
40808;DHT22;26523;52.504;13.498;2023-06-14T03:44:18;12.80;99.90
40808;DHT22;26523;52.504;13.498;2023-06-14T03:46:45;12.80;99.90
40808;DHT22;26523;52.504;13.498;2023-06-14T03:49:11;12.80;99.90
40808;DHT22;26523;52.504;13.498;2023-06-14T03:51:37;12.80;99.90
40808;DHT22;26523;52.504;13.498;2023-06-14T03:54:03;12.90;99.90
40808;DHT22;26523;52.504;13.498;2023-06-14T03:56:29;13.00;99.90
40808;DHT22;26523;52.504;13.498;2023-06-14T03:58:54;13.20;99.90
40808;DHT22;26523;52.504;13.498;2023-06-14T04:01:20;13.40;99.90
40808;DHT22;26523;52.504;13.498;2023-06-14T04:03:46;13.60;99.90
40808;DHT22;26523;52.504;13.498;2023-06-14T04:06:12;13.90;99.90
40808;DHT22;26523;52.504;13.498;2023-06-14T04:08:37;14.00;99.90
40808;DHT22;26523;52.504;13.498;2023-06-14T04:11:05;14.10;99.90
40808;DHT22;26523;52.504;13.498;2023-06-14T04:13:30;14.10;99.90
40808;DHT22;26523;52.504;13.498;2023-06-14T04:15:57;14.20;99.90
40808;DHT22;26523;52.504;13.498;2023-06-14T04:18:22;14.20;99.90
40808;DHT22;26523;52.504;13.498;2023-06-14T04:20:49;14.30;99.90
40808;DHT22;26523;52.504;13.498;2023-06-14T04:23:17;14.40;99.90
40808;DHT22;26523;52.504;13.498;2023-06-14T04:25:46;14.50;99.90
40808;DHT22;26523;52.504;13.498;2023-06-14T04:28:13;14.50;99.90
40808;DHT22;26523;52.504;13.498;2023-06-14T04:30:40;14.70;99.90
40808;DHT22;26523;52.504;13.498;2023-06-14T04:33:06;14.70;99.90
40808;DHT22;26523;52.504;13.498;2023-06-14T04:35:32;14.80;99.90
40808;DHT22;26523;52.504;13.498;2023-06-14T04:37:58;14.90;99.90
40808;DHT22;26523;52.504;13.498;2023-06-14T04:40:24;15.10;99.90
40808;DHT22;26523;52.504;13.498;2023-06-14T04:42:50;15.10;99.90
40808;DHT22;26523;52.504;13.498;2023-06-14T04:45:16;15.20;99.90
40808;DHT22;26523;52.504;13.498;2023-06-14T04:47:42;15.40;99.90
40808;DHT22;26523;52.504;13.498;2023-06-14T04:50:09;15.60;99.90
40808;DHT22;26523;52.504;13.498;2023-06-14T04:52:38;15.80;99.90
40808;DHT22;26523;52.504;13.498;2023-06-14T04:55:04;15.90;99.90
40808;DHT22;26523;52.504;13.498;2023-06-14T04:57:31;16.00;99.90
40808;DHT22;26523;52.504;13.498;2023-06-14T04:59:57;16.00;99.90
40808;DHT22;26523;52.504;13.498;2023-06-14T05:02:23;16.10;99.90
40808;DHT22;26523;52.504;13.498;2023-06-14T05:04:50;16.10;99.90
40808;DHT22;26523;52.504;13.498;2023-06-14T05:07:16;16.20;99.90
40808;DHT22;26523;52.504;13.498;2023-06-14T05:09:42;16.10;99.90
40808;DHT22;26523;52.504;13.498;2023-06-14T05:12:08;16.00;99.90
40808;DHT22;26523;52.504;13.498;2023-06-14T05:14:34;15.80;99.90
40808;DHT22;26523;52.504;13.498;2023-06-14T05:17:00;15.60;99.90
40808;DHT22;26523;52.504;13.498;2023-06-14T05:19:25;15.40;99.90
40808;DHT22;26523;52.504;13.498;2023-06-14T05:21:52;15.50;99.90
40808;DHT22;26523;52.504;13.498;2023-06-14T05:24:18;15.40;99.90
40808;DHT22;26523;52.504;13.498;2023-06-14T05:26:44;15.40;99.90
40808;DHT22;26523;52.504;13.498;2023-06-14T05:29:10;15.40;99.90
40808;DHT22;26523;52.504;13.498;2023-06-14T05:31:37;15.50;99.90
40808;DHT22;26523;52.504;13.498;2023-06-14T05:34:03;15.50;99.90
40808;DHT22;26523;52.504;13.498;2023-06-14T05:36:29;15.50;99.90
40808;DHT22;26523;52.504;13.498;2023-06-14T05:38:55;15.40;99.90
40808;DHT22;26523;52.504;13.498;2023-06-14T05:41:24;15.40;99.90
40808;DHT22;26523;52.504;13.498;2023-06-14T05:43:51;15.40;99.90
40808;DHT22;26523;52.504;13.498;2023-06-14T05:46:17;15.40;99.90
40808;DHT22;26523;52.504;13.498;2023-06-14T05:48:48;15.50;99.90
40808;DHT22;26523;52.504;13.498;2023-06-14T05:51:14;15.40;99.90
40808;DHT22;26523;52.504;13.498;2023-06-14T05:53:40;15.40;99.90
40808;DHT22;26523;52.504;13.498;2023-06-14T05:56:05;15.40;99.90
40808;DHT22;26523;52.504;13.498;2023-06-14T05:58:31;15.40;99.90
40808;DHT22;26523;52.504;13.498;2023-06-14T06:00:57;15.40;99.90
40808;DHT22;26523;52.504;13.498;2023-06-14T06:03:23;15.40;99.90
40808;DHT22;26523;52.504;13.498;2023-06-14T06:05:48;15.40;99.90
40808;DHT22;26523;52.504;13.498;2023-06-14T06:08:14;15.30;99.90
40808;DHT22;26523;52.504;13.498;2023-06-14T06:10:42;15.40;99.90
40808;DHT22;26523;52.504;13.498;2023-06-14T06:13:07;15.30;99.90
40808;DHT22;26523;52.504;13.498;2023-06-14T06:15:33;15.40;99.90
40808;DHT22;26523;52.504;13.498;2023-06-14T06:17:58;15.50;99.90
40808;DHT22;26523;52.504;13.498;2023-06-14T06:20:24;15.50;99.90
40808;DHT22;26523;52.504;13.498;2023-06-14T06:22:53;15.50;99.90
40808;DHT22;26523;52.504;13.498;2023-06-14T06:25:19;15.50;99.90
40808;DHT22;26523;52.504;13.498;2023-06-14T06:27:44;15.50;99.90
40808;DHT22;26523;52.504;13.498;2023-06-14T06:30:11;15.50;99.90
40808;DHT22;26523;52.504;13.498;2023-06-14T06:32:36;15.60;99.90
40808;DHT22;26523;52.504;13.498;2023-06-14T06:35:02;15.80;99.90
40808;DHT22;26523;52.504;13.498;2023-06-14T06:37:31;15.70;99.90
40808;DHT22;26523;52.504;13.498;2023-06-14T06:39:57;15.70;99.90
40808;DHT22;26523;52.504;13.498;2023-06-14T06:42:22;15.80;99.90
40808;DHT22;26523;52.504;13.498;2023-06-14T06:44:48;15.80;99.90
40808;DHT22;26523;52.504;13.498;2023-06-14T06:47:14;16.00;99.90
40808;DHT22;26523;52.504;13.498;2023-06-14T06:49:39;16.20;99.90
40808;DHT22;26523;52.504;13.498;2023-06-14T06:52:06;16.40;99.90
40808;DHT22;26523;52.504;13.498;2023-06-14T06:54:33;16.60;99.90
40808;DHT22;26523;52.504;13.498;2023-06-14T06:57:00;16.60;99.90
40808;DHT22;26523;52.504;13.498;2023-06-14T06:59:27;16.80;99.90
40808;DHT22;26523;52.504;13.498;2023-06-14T07:01:52;17.00;99.90
40808;DHT22;26523;52.504;13.498;2023-06-14T07:04:18;17.10;99.90
40808;DHT22;26523;52.504;13.498;2023-06-14T07:06:44;17.30;99.90
40808;DHT22;26523;52.504;13.498;2023-06-14T07:09:10;17.40;99.90
40808;DHT22;26523;52.504;13.498;2023-06-14T07:11:40;17.60;99.90
40808;DHT22;26523;52.504;13.498;2023-06-14T07:14:06;17.80;99.90
40808;DHT22;26523;52.504;13.498;2023-06-14T07:16:32;17.70;99.90
40808;DHT22;26523;52.504;13.498;2023-06-14T07:18:58;17.60;99.90
40808;DHT22;26523;52.504;13.498;2023-06-14T07:21:23;17.90;99.90
40808;DHT22;26523;52.504;13.498;2023-06-14T07:23:51;18.20;99.90
40808;DHT22;26523;52.504;13.498;2023-06-14T07:26:17;19.00;99.90
40808;DHT22;26523;52.504;13.498;2023-06-14T07:28:42;19.50;99.90
40808;DHT22;26523;52.504;13.498;2023-06-14T07:31:10;20.60;99.90
40808;DHT22;26523;52.504;13.498;2023-06-14T07:33:36;21.30;99.90
40808;DHT22;26523;52.504;13.498;2023-06-14T07:36:02;21.90;98.70
40808;DHT22;26523;52.504;13.498;2023-06-14T07:38:28;22.40;96.80
40808;DHT22;26523;52.504;13.498;2023-06-14T07:40:54;22.50;95.80
40808;DHT22;26523;52.504;13.498;2023-06-14T07:43:19;22.50;95.40
40808;DHT22;26523;52.504;13.498;2023-06-14T07:45:45;22.30;95.20
40808;DHT22;26523;52.504;13.498;2023-06-14T07:48:11;21.80;95.50
40808;DHT22;26523;52.504;13.498;2023-06-14T07:50:37;21.40;96.00
40808;DHT22;26523;52.504;13.498;2023-06-14T07:53:02;21.50;95.70
40808;DHT22;26523;52.504;13.498;2023-06-14T07:55:28;21.20;95.70
40808;DHT22;26523;52.504;13.498;2023-06-14T07:57:54;20.80;96.30
40808;DHT22;26523;52.504;13.498;2023-06-14T08:00:20;20.60;96.40
40808;DHT22;26523;52.504;13.498;2023-06-14T08:02:46;20.70;96.50
40808;DHT22;26523;52.504;13.498;2023-06-14T08:05:12;20.60;96.70
40808;DHT22;26523;52.504;13.498;2023-06-14T08:07:39;20.50;96.80
40808;DHT22;26523;52.504;13.498;2023-06-14T08:10:05;20.70;96.70
40808;DHT22;26523;52.504;13.498;2023-06-14T08:12:32;20.50;96.40
40808;DHT22;26523;52.504;13.498;2023-06-14T08:14:58;20.20;96.80
40808;DHT22;26523;52.504;13.498;2023-06-14T08:17:23;20.00;97.00
40808;DHT22;26523;52.504;13.498;2023-06-14T08:19:49;20.00;97.20
40808;DHT22;26523;52.504;13.498;2023-06-14T08:22:16;19.80;97.20
40808;DHT22;26523;52.504;13.498;2023-06-14T08:24:42;19.80;97.60
40808;DHT22;26523;52.504;13.498;2023-06-14T08:27:07;20.00;97.30
40808;DHT22;26523;52.504;13.498;2023-06-14T08:29:34;20.30;96.90
40808;DHT22;26523;52.504;13.498;2023-06-14T08:31:59;20.80;96.20
40808;DHT22;26523;52.504;13.498;2023-06-14T08:34:25;20.70;95.70
40808;DHT22;26523;52.504;13.498;2023-06-14T08:36:51;20.50;96.10
40808;DHT22;26523;52.504;13.498;2023-06-14T08:39:17;20.40;96.50
40808;DHT22;26523;52.504;13.498;2023-06-14T08:41:46;20.10;96.90
40808;DHT22;26523;52.504;13.498;2023-06-14T08:44:12;19.80;96.70
40808;DHT22;26523;52.504;13.498;2023-06-14T08:46:38;19.80;97.20
40808;DHT22;26523;52.504;13.498;2023-06-14T08:49:06;19.70;96.70
40808;DHT22;26523;52.504;13.498;2023-06-14T08:51:33;19.70;96.80
40808;DHT22;26523;52.504;13.498;2023-06-14T08:54:03;19.80;96.60
40808;DHT22;26523;52.504;13.498;2023-06-14T08:56:30;19.80;96.60
40808;DHT22;26523;52.504;13.498;2023-06-14T08:59:00;19.90;96.80
40808;DHT22;26523;52.504;13.498;2023-06-14T09:01:34;20.00;96.60
40808;DHT22;26523;52.504;13.498;2023-06-14T09:04:00;20.30;95.90
40808;DHT22;26523;52.504;13.498;2023-06-14T09:06:27;20.20;95.80
40808;DHT22;26523;52.504;13.498;2023-06-14T09:08:55;20.20;95.60
40808;DHT22;26523;52.504;13.498;2023-06-14T09:11:23;20.00;95.50
40808;DHT22;26523;52.504;13.498;2023-06-14T09:13:51;20.10;95.40
40808;DHT22;26523;52.504;13.498;2023-06-14T09:16:16;20.00;95.30
40808;DHT22;26523;52.504;13.498;2023-06-14T09:18:44;20.10;95.50
40808;DHT22;26523;52.504;13.498;2023-06-14T09:21:11;19.80;96.20
40808;DHT22;26523;52.504;13.498;2023-06-14T09:23:38;19.80;95.90
40808;DHT22;26523;52.504;13.498;2023-06-14T09:26:11;19.90;96.10
40808;DHT22;26523;52.504;13.498;2023-06-14T09:28:45;19.80;95.90
40808;DHT22;26523;52.504;13.498;2023-06-14T09:31:15;19.70;96.20
40808;DHT22;26523;52.504;13.498;2023-06-14T09:33:45;19.90;96.10
40808;DHT22;26523;52.504;13.498;2023-06-14T09:36:21;20.20;95.70
40808;DHT22;26523;52.504;13.498;2023-06-14T09:38:58;20.50;95.60
40808;DHT22;26523;52.504;13.498;2023-06-14T09:41:40;20.90;95.10
40808;DHT22;26523;52.504;13.498;2023-06-14T09:44:08;21.00;94.30
40808;DHT22;26523;52.504;13.498;2023-06-14T09:46:34;20.90;94.40
40808;DHT22;26523;52.504;13.498;2023-06-14T09:49:01;20.90;94.50
40808;DHT22;26523;52.504;13.498;2023-06-14T09:51:28;20.90;94.80
40808;DHT22;26523;52.504;13.498;2023-06-14T09:53:59;21.00;94.30
40808;DHT22;26523;52.504;13.498;2023-06-14T09:56:36;20.80;94.40
40808;DHT22;26523;52.504;13.498;2023-06-14T09:59:05;20.60;94.60
40808;DHT22;26523;52.504;13.498;2023-06-14T10:01:31;20.60;94.90
40808;DHT22;26523;52.504;13.498;2023-06-14T10:04:04;20.80;94.70
40808;DHT22;26523;52.504;13.498;2023-06-14T10:06:32;20.90;94.10
40808;DHT22;26523;52.504;13.498;2023-06-14T10:09:04;20.60;94.30
40808;DHT22;26523;52.504;13.498;2023-06-14T10:11:31;20.60;94.40
40808;DHT22;26523;52.504;13.498;2023-06-14T10:13:58;20.50;94.50
40808;DHT22;26523;52.504;13.498;2023-06-14T10:16:32;20.30;95.00
40808;DHT22;26523;52.504;13.498;2023-06-14T10:19:37;20.30;95.10
40808;DHT22;26523;52.504;13.498;2023-06-14T10:22:04;20.30;95.00
40808;DHT22;26523;52.504;13.498;2023-06-14T10:24:33;20.20;95.10
40808;DHT22;26523;52.504;13.498;2023-06-14T10:27:03;20.10;95.30
40808;DHT22;26523;52.504;13.498;2023-06-14T10:29:28;20.00;95.30
40808;DHT22;26523;52.504;13.498;2023-06-14T10:31:59;20.00;95.30
40808;DHT22;26523;52.504;13.498;2023-06-14T10:34:30;19.90;95.30
40808;DHT22;26523;52.504;13.498;2023-06-14T10:37:07;19.80;95.70
40808;DHT22;26523;52.504;13.498;2023-06-14T10:39:43;19.80;95.70
40808;DHT22;26523;52.504;13.498;2023-06-14T10:42:11;19.90;95.30
40808;DHT22;26523;52.504;13.498;2023-06-14T10:44:38;20.10;95.30
40808;DHT22;26523;52.504;13.498;2023-06-14T10:47:11;20.40;95.10
40808;DHT22;26523;52.504;13.498;2023-06-14T10:52:11;20.90;94.30
40808;DHT22;26523;52.504;13.498;2023-06-14T10:55:01;21.20;93.50
40808;DHT22;26523;52.504;13.498;2023-06-14T10:57:27;21.20;93.30
40808;DHT22;26523;52.504;13.498;2023-06-14T10:59:53;21.20;93.20
40808;DHT22;26523;52.504;13.498;2023-06-14T11:02:27;21.30;93.10
40808;DHT22;26523;52.504;13.498;2023-06-14T11:05:03;21.20;93.20
40808;DHT22;26523;52.504;13.498;2023-06-14T11:10:37;21.30;92.90
40808;DHT22;26523;52.504;13.498;2023-06-14T11:13:03;21.50;92.70
40808;DHT22;26523;52.504;13.498;2023-06-14T11:15:29;21.70;92.20
40808;DHT22;26523;52.504;13.498;2023-06-14T11:17:56;21.80;92.00
40808;DHT22;26523;52.504;13.498;2023-06-14T11:20:25;21.80;91.90
40808;DHT22;26523;52.504;13.498;2023-06-14T11:22:52;22.10;91.90
40808;DHT22;26523;52.504;13.498;2023-06-14T11:25:18;22.60;91.20
40808;DHT22;26523;52.504;13.498;2023-06-14T11:27:44;22.80;90.90
40808;DHT22;26523;52.504;13.498;2023-06-14T11:30:10;23.00;90.70
40808;DHT22;26523;52.504;13.498;2023-06-14T11:32:39;22.80;90.30
40808;DHT22;26523;52.504;13.498;2023-06-14T11:35:05;22.60;90.10
40808;DHT22;26523;52.504;13.498;2023-06-14T11:37:31;22.60;90.30
40808;DHT22;26523;52.504;13.498;2023-06-14T11:40:04;22.60;90.00
40808;DHT22;26523;52.504;13.498;2023-06-14T11:42:37;22.60;89.30
40808;DHT22;26523;52.504;13.498;2023-06-14T11:45:04;22.40;89.80
40808;DHT22;26523;52.504;13.498;2023-06-14T11:47:37;22.30;90.20
40808;DHT22;26523;52.504;13.498;2023-06-14T11:50:05;22.50;90.20
40808;DHT22;26523;52.504;13.498;2023-06-14T11:52:31;22.40;90.10
40808;DHT22;26523;52.504;13.498;2023-06-14T11:54:57;22.40;90.10
40808;DHT22;26523;52.504;13.498;2023-06-14T11:57:24;22.40;89.50
40808;DHT22;26523;52.504;13.498;2023-06-14T11:59:50;22.30;88.30
40808;DHT22;26523;52.504;13.498;2023-06-14T12:02:17;22.30;88.80
40808;DHT22;26523;52.504;13.498;2023-06-14T12:04:46;22.00;89.50
40808;DHT22;26523;52.504;13.498;2023-06-14T12:07:13;22.00;88.50
40808;DHT22;26523;52.504;13.498;2023-06-14T12:12:24;21.80;87.80
40808;DHT22;26523;52.504;13.498;2023-06-14T12:14:51;21.50;89.00
40808;DHT22;26523;52.504;13.498;2023-06-14T12:17:18;21.40;90.20
40808;DHT22;26523;52.504;13.498;2023-06-14T12:19:48;21.30;90.10
40808;DHT22;26523;52.504;13.498;2023-06-14T12:22:14;21.20;88.70
40808;DHT22;26523;52.504;13.498;2023-06-14T12:24:44;21.20;89.50
40808;DHT22;26523;52.504;13.498;2023-06-14T12:27:09;21.40;88.60
40808;DHT22;26523;52.504;13.498;2023-06-14T12:29:37;21.30;88.80
40808;DHT22;26523;52.504;13.498;2023-06-14T12:32:02;21.30;87.60
40808;DHT22;26523;52.504;13.498;2023-06-14T12:34:28;21.30;86.50
40808;DHT22;26523;52.504;13.498;2023-06-14T12:36:54;21.30;85.90
40808;DHT22;26523;52.504;13.498;2023-06-14T12:39:20;21.20;86.10
40808;DHT22;26523;52.504;13.498;2023-06-14T12:41:50;21.20;86.00
40808;DHT22;26523;52.504;13.498;2023-06-14T12:44:15;21.30;86.30
40808;DHT22;26523;52.504;13.498;2023-06-14T12:46:42;21.40;85.20
40808;DHT22;26523;52.504;13.498;2023-06-14T12:49:09;21.40;85.40
40808;DHT22;26523;52.504;13.498;2023-06-14T12:51:36;21.60;85.50
40808;DHT22;26523;52.504;13.498;2023-06-14T12:54:02;21.80;87.20
40808;DHT22;26523;52.504;13.498;2023-06-14T12:56:28;22.00;84.20
40808;DHT22;26523;52.504;13.498;2023-06-14T12:58:53;22.20;83.80
40808;DHT22;26523;52.504;13.498;2023-06-14T13:01:19;22.10;83.60
40808;DHT22;26523;52.504;13.498;2023-06-14T13:03:48;22.10;83.20
40808;DHT22;26523;52.504;13.498;2023-06-14T13:06:16;22.30;82.40
40808;DHT22;26523;52.504;13.498;2023-06-14T13:08:41;22.50;81.70
40808;DHT22;26523;52.504;13.498;2023-06-14T13:11:07;22.70;81.30
40808;DHT22;26523;52.504;13.498;2023-06-14T13:13:33;23.00;80.60
40808;DHT22;26523;52.504;13.498;2023-06-14T13:15:58;23.10;82.10
40808;DHT22;26523;52.504;13.498;2023-06-14T13:18:24;23.10;81.00
40808;DHT22;26523;52.504;13.498;2023-06-14T13:20:50;23.20;80.40
40808;DHT22;26523;52.504;13.498;2023-06-14T13:23:16;23.40;80.70
40808;DHT22;26523;52.504;13.498;2023-06-14T13:25:42;23.50;78.40
40808;DHT22;26523;52.504;13.498;2023-06-14T13:28:08;23.60;77.20
40808;DHT22;26523;52.504;13.498;2023-06-14T13:30:34;23.50;76.10
40808;DHT22;26523;52.504;13.498;2023-06-14T13:33:01;23.60;76.80
40808;DHT22;26523;52.504;13.498;2023-06-14T13:35:27;23.70;76.60
40808;DHT22;26523;52.504;13.498;2023-06-14T13:37:53;23.80;75.90
40808;DHT22;26523;52.504;13.498;2023-06-14T13:40:18;23.60;76.40
40808;DHT22;26523;52.504;13.498;2023-06-14T13:42:45;23.70;75.80
40808;DHT22;26523;52.504;13.498;2023-06-14T13:45:12;23.50;75.40
40808;DHT22;26523;52.504;13.498;2023-06-14T13:47:38;23.60;75.90
40808;DHT22;26523;52.504;13.498;2023-06-14T13:50:05;23.60;76.30
40808;DHT22;26523;52.504;13.498;2023-06-14T13:52:31;23.70;77.30
40808;DHT22;26523;52.504;13.498;2023-06-14T13:54:56;23.90;75.80
40808;DHT22;26523;52.504;13.498;2023-06-14T13:57:22;23.80;75.60
40808;DHT22;26523;52.504;13.498;2023-06-14T13:59:48;23.60;76.30
40808;DHT22;26523;52.504;13.498;2023-06-14T14:02:14;23.80;76.80
40808;DHT22;26523;52.504;13.498;2023-06-14T14:04:40;24.00;77.30
40808;DHT22;26523;52.504;13.498;2023-06-14T14:07:06;24.00;74.80
40808;DHT22;26523;52.504;13.498;2023-06-14T14:09:33;24.00;75.00
40808;DHT22;26523;52.504;13.498;2023-06-14T14:12:00;23.90;74.90
40808;DHT22;26523;52.504;13.498;2023-06-14T14:14:27;23.70;74.40
40808;DHT22;26523;52.504;13.498;2023-06-14T14:16:53;23.60;74.90
40808;DHT22;26523;52.504;13.498;2023-06-14T14:19:21;23.60;75.30
40808;DHT22;26523;52.504;13.498;2023-06-14T14:21:47;23.90;75.10
40808;DHT22;26523;52.504;13.498;2023-06-14T14:24:13;24.10;73.30
40808;DHT22;26523;52.504;13.498;2023-06-14T14:26:39;24.10;73.00
40808;DHT22;26523;52.504;13.498;2023-06-14T14:29:05;24.10;71.80
40808;DHT22;26523;52.504;13.498;2023-06-14T14:31:31;23.90;72.10
40808;DHT22;26523;52.504;13.498;2023-06-14T14:33:56;23.80;71.20
40808;DHT22;26523;52.504;13.498;2023-06-14T14:36:22;23.70;71.60
40808;DHT22;26523;52.504;13.498;2023-06-14T14:38:48;23.70;72.10
40808;DHT22;26523;52.504;13.498;2023-06-14T14:41:14;23.60;72.20
40808;DHT22;26523;52.504;13.498;2023-06-14T14:43:39;23.60;73.10
40808;DHT22;26523;52.504;13.498;2023-06-14T14:46:05;23.70;73.50
40808;DHT22;26523;52.504;13.498;2023-06-14T14:48:31;23.80;72.00
40808;DHT22;26523;52.504;13.498;2023-06-14T14:50:57;23.60;72.00
40808;DHT22;26523;52.504;13.498;2023-06-14T14:53:23;23.60;72.20
40808;DHT22;26523;52.504;13.498;2023-06-14T14:55:49;23.50;72.00
40808;DHT22;26523;52.504;13.498;2023-06-14T14:58:15;23.50;72.40
40808;DHT22;26523;52.504;13.498;2023-06-14T15:00:47;23.30;72.40
40808;DHT22;26523;52.504;13.498;2023-06-14T15:03:14;23.10;72.30
40808;DHT22;26523;52.504;13.498;2023-06-14T15:05:40;23.00;72.70
40808;DHT22;26523;52.504;13.498;2023-06-14T15:08:06;22.80;74.00
40808;DHT22;26523;52.504;13.498;2023-06-14T15:10:40;22.70;75.00
40808;DHT22;26523;52.504;13.498;2023-06-14T15:13:09;22.70;75.30
40808;DHT22;26523;52.504;13.498;2023-06-14T15:15:36;22.80;75.30
40808;DHT22;26523;52.504;13.498;2023-06-14T15:18:01;22.80;75.30
40808;DHT22;26523;52.504;13.498;2023-06-14T15:20:27;22.90;74.90
40808;DHT22;26523;52.504;13.498;2023-06-14T15:22:54;22.90;75.00
40808;DHT22;26523;52.504;13.498;2023-06-14T15:25:25;22.90;74.50
40808;DHT22;26523;52.504;13.498;2023-06-14T15:27:51;23.00;75.10
40808;DHT22;26523;52.504;13.498;2023-06-14T15:30:17;23.00;74.60